createdAt,value
2022-09-04T00:01:21.380Z,74.30
2022-09-04T00:03:38.932Z,74.26
2022-09-04T00:05:49.035Z,74.37
2022-09-04T00:08:04.122Z,74.47
2022-09-04T00:10:18.386Z,74.25
2022-09-04T00:12:30.194Z,74.35
2022-09-04T00:14:43.638Z,74.76
2022-09-04T00:16:55.259Z,74.75
2022-09-04T00:19:05.957Z,74.75
2022-09-04T00:21:16.368Z,74.74
2022-09-04T00:23:27.361Z,74.80
2022-09-04T00:25:41.213Z,74.99
2022-09-04T00:27:50.331Z,75.02
2022-09-04T00:30:00.984Z,74.85
2022-09-04T00:32:13.866Z,74.92
2022-09-04T00:34:35.863Z,74.69
2022-09-04T00:36:49.501Z,74.80
2022-09-04T00:38:58.471Z,74.66
2022-09-04T00:41:13.258Z,74.92
2022-09-04T00:43:52.136Z,75.14
2022-09-04T00:46:20.379Z,75.15
2022-09-04T00:48:39.763Z,75.09
2022-09-04T00:51:16.350Z,75.26
2022-09-04T00:53:41.522Z,75.17
2022-09-04T00:55:56.827Z,75.35
2022-09-04T00:58:15.698Z,75.43
2022-09-04T01:00:22.588Z,75.62
2022-09-04T01:02:40.408Z,75.50
2022-09-04T01:04:56.694Z,75.36
2022-09-04T01:07:22.751Z,75.38
2022-09-04T01:09:50.591Z,75.58
2022-09-04T01:12:12.386Z,75.44
2022-09-04T01:14:26.230Z,75.77
2022-09-04T01:16:36.033Z,75.69
2022-09-04T01:18:47.800Z,75.52
2022-09-04T01:21:22.368Z,75.34
2022-09-04T01:24:09.226Z,75.44
2022-09-04T01:26:22.505Z,75.51
2022-09-04T01:28:35.323Z,75.60
2022-09-04T01:30:50.194Z,75.80
2022-09-04T01:33:07.832Z,75.93
2022-09-04T01:35:21.798Z,75.77
2022-09-04T01:37:36.155Z,75.95
2022-09-04T01:39:44.620Z,75.97
2022-09-04T01:41:56.691Z,76.26
2022-09-04T01:44:03.464Z,76.40
2022-09-04T01:46:33.162Z,76.30
2022-09-04T01:48:46.308Z,76.75
2022-09-04T01:50:58.364Z,76.86
2022-09-04T01:53:12.049Z,77.63
2022-09-04T01:55:26.428Z,77.94
2022-09-04T01:57:46.413Z,78.25
2022-09-04T02:00:01.301Z,78.68
2022-09-04T02:02:18.851Z,78.77
2022-09-04T02:04:33.725Z,79.17
2022-09-04T02:06:48.555Z,79.55
2022-09-04T02:09:05.600Z,80.24
2022-09-04T02:11:15.050Z,80.52
2022-09-04T02:13:28.272Z,81.10
2022-09-04T02:15:42.082Z,81.19
2022-09-04T02:17:55.182Z,81.72
2022-09-04T02:20:10.510Z,82.11
2022-09-04T02:22:24.263Z,82.23
2022-09-04T02:24:38.539Z,82.06
2022-09-04T02:26:51.663Z,82.43
2022-09-04T02:29:03.480Z,82.68
2022-09-04T02:31:16.914Z,82.78
2022-09-04T02:33:27.032Z,83.57
2022-09-04T02:35:39.491Z,83.70
2022-09-04T02:37:55.752Z,84.02
2022-09-04T02:40:09.558Z,83.87
2022-09-04T02:42:24.278Z,83.92
2022-09-04T02:44:40.949Z,83.68
2022-09-04T02:46:59.995Z,83.58
2022-09-04T02:49:13.031Z,84.03
2022-09-04T02:51:32.690Z,84.24
2022-09-04T02:53:50.116Z,84.41
2022-09-04T02:56:06.840Z,84.36
2022-09-04T02:58:21.668Z,84.39
2022-09-04T03:00:41.218Z,84.68
2022-09-04T03:02:51.701Z,84.66
2022-09-04T03:05:04.596Z,84.56
2022-09-04T03:07:13.750Z,84.32
2022-09-04T03:09:24.230Z,84.48
2022-09-04T03:11:36.667Z,84.45
2022-09-04T03:13:46.963Z,84.47
2022-09-04T03:15:56.151Z,84.43
2022-09-04T03:18:06.230Z,84.37
2022-09-04T03:20:16.444Z,84.32
2022-09-04T03:22:27.354Z,84.14
2022-09-04T03:24:38.257Z,83.97
2022-09-04T03:26:44.127Z,84.07
2022-09-04T03:29:00.988Z,84.02
2022-09-04T03:31:23.581Z,84.01
2022-09-04T03:33:35.136Z,83.80
2022-09-04T03:35:49.592Z,83.81
2022-09-04T03:38:09.298Z,83.84
2022-09-04T03:40:28.653Z,83.89
2022-09-04T03:42:43.868Z,83.76
2022-09-04T03:45:02.943Z,83.75
2022-09-04T03:47:19.652Z,83.70
2022-09-04T03:49:37.578Z,83.73
2022-09-04T03:51:54.751Z,83.82
2022-09-04T03:54:08.398Z,83.69
2022-09-04T03:56:45.013Z,83.38
2022-09-04T03:59:01.532Z,83.34
2022-09-04T04:01:16.581Z,83.22
2022-09-04T04:03:40.546Z,83.51
2022-09-04T04:06:01.416Z,83.28
2022-09-04T04:08:34.171Z,83.06
2022-09-04T04:10:52.460Z,83.15
2022-09-04T04:13:21.248Z,83.23
2022-09-04T04:15:41.914Z,83.41
2022-09-04T04:18:03.728Z,83.35
2022-09-04T04:20:25.546Z,83.34
2022-09-04T04:22:43.836Z,83.11
2022-09-04T04:25:15.316Z,82.81
2022-09-04T04:27:32.263Z,82.82
2022-09-04T04:29:55.823Z,82.59
2022-09-04T04:32:18.899Z,82.40
2022-09-04T04:34:31.353Z,82.38
2022-09-04T04:36:42.738Z,82.11
2022-09-04T04:39:02.132Z,81.96
2022-09-04T04:41:23.241Z,82.06
2022-09-04T04:43:38.014Z,82.51
2022-09-04T04:45:52.135Z,83.38
2022-09-04T04:48:15.791Z,83.67
2022-09-04T04:50:28.187Z,84.79
2022-09-04T04:52:46.897Z,86.33
2022-09-04T04:55:05.736Z,87.47
2022-09-04T04:57:21.215Z,88.36
2022-09-04T04:59:34.647Z,88.83
2022-09-04T05:01:49.618Z,89.93
2022-09-04T05:04:11.073Z,90.39
2022-09-04T05:06:26.156Z,90.75
2022-09-04T05:08:40.517Z,91.06
2022-09-04T05:10:48.549Z,91.53
2022-09-04T05:13:02.372Z,91.86
2022-09-04T05:15:15.396Z,92.07
2022-09-04T05:17:31.486Z,92.13
2022-09-04T05:19:45.329Z,92.35
2022-09-04T05:21:56.137Z,92.64
2022-09-04T05:24:08.811Z,92.74
2022-09-04T05:26:22.726Z,92.77
2022-09-04T05:28:35.734Z,92.85
2022-09-04T05:30:49.226Z,92.89
2022-09-04T05:33:01.374Z,92.96
2022-09-04T05:35:15.745Z,93.08
2022-09-04T05:37:27.826Z,93.07
2022-09-04T05:39:37.689Z,92.90
2022-09-04T05:42:01.148Z,92.91
2022-09-04T05:44:26.961Z,92.90
2022-09-04T05:46:45.242Z,92.98
2022-09-04T05:49:00.649Z,93.42
2022-09-04T05:51:41.202Z,93.18
2022-09-04T05:54:21.331Z,92.65
2022-09-04T05:56:55.551Z,92.30
2022-09-04T05:59:30.415Z,92.00
2022-09-04T06:02:06.491Z,91.38
2022-09-04T06:04:33.012Z,90.98
2022-09-04T06:06:45.446Z,90.61
2022-09-04T06:09:15.650Z,90.23
2022-09-04T06:11:55.766Z,89.63
2022-09-04T06:14:12.095Z,89.68
2022-09-04T06:16:47.549Z,88.69
2022-09-04T06:19:07.113Z,88.54
2022-09-04T06:21:44.634Z,88.11
2022-09-04T06:24:30.558Z,87.76
2022-09-04T06:26:57.918Z,87.48
2022-09-04T06:29:29.108Z,87.33
2022-09-04T06:32:19.914Z,86.73
2022-09-04T06:34:40.660Z,87.04
2022-09-04T06:37:00.179Z,86.97
2022-09-04T06:39:23.839Z,87.32
2022-09-04T06:41:43.605Z,87.12
2022-09-04T06:44:01.276Z,86.99
2022-09-04T06:46:22.212Z,87.14
2022-09-04T06:48:42.795Z,86.23
2022-09-04T06:50:59.278Z,85.48
2022-09-04T06:53:26.751Z,85.39
2022-09-04T06:55:39.464Z,85.07
2022-09-04T06:58:02.439Z,85.65
2022-09-04T07:00:10.536Z,85.49
2022-09-04T07:02:32.455Z,85.91
2022-09-04T07:04:55.511Z,86.38
2022-09-04T07:07:10.334Z,86.68
2022-09-04T07:09:21.821Z,86.92
2022-09-04T07:11:40.688Z,86.86
2022-09-04T07:14:06.371Z,87.00
2022-09-04T07:16:34.716Z,87.05
2022-09-04T07:19:06.646Z,87.06
2022-09-04T07:21:17.974Z,86.88
2022-09-04T07:23:33.633Z,86.29
2022-09-04T07:25:47.924Z,86.30
2022-09-04T07:28:07.645Z,86.43
2022-09-04T07:30:14.949Z,85.68
2022-09-04T07:32:24.995Z,85.27
2022-09-04T07:34:37.855Z,84.44
2022-09-04T07:36:52.110Z,83.67
2022-09-04T07:39:02.770Z,83.23
2022-09-04T07:41:13.122Z,82.67
2022-09-04T07:43:31.150Z,82.26
2022-09-04T07:45:40.335Z,82.19
2022-09-04T07:47:53.436Z,82.03
2022-09-04T07:50:07.689Z,81.81
2022-09-04T07:52:24.722Z,81.85
2022-09-04T07:55:04.069Z,81.89
2022-09-04T07:57:31.092Z,81.61
2022-09-04T07:59:53.954Z,81.73
2022-09-04T08:02:18.727Z,81.66
2022-09-04T08:04:48.523Z,81.36
2022-09-04T08:06:59.221Z,81.15
2022-09-04T08:09:26.072Z,81.17
2022-09-04T08:11:49.451Z,80.51
2022-09-04T08:14:16.864Z,80.15
2022-09-04T08:16:30.562Z,80.07
2022-09-04T08:18:52.114Z,79.81
2022-09-04T08:21:10.980Z,78.70
2022-09-04T08:23:40.558Z,78.62
2022-09-04T08:25:58.425Z,78.28
2022-09-04T08:28:26.291Z,77.12
2022-09-04T08:30:41.059Z,75.98
2022-09-04T08:33:24.912Z,76.04
2022-09-04T08:35:35.053Z,75.68
2022-09-04T08:37:58.596Z,75.28
2022-09-04T08:40:39.620Z,74.78
2022-09-04T08:43:13.226Z,74.43
2022-09-04T08:45:48.536Z,74.18
2022-09-04T08:48:23.964Z,74.09
2022-09-04T08:51:03.455Z,73.47
2022-09-04T08:53:29.627Z,73.83
2022-09-04T08:56:13.219Z,73.71
2022-09-04T08:58:47.740Z,72.66
2022-09-04T09:01:16.633Z,72.76
2022-09-04T09:03:51.336Z,72.93
2022-09-04T09:06:21.445Z,72.25
2022-09-04T09:09:09.306Z,71.57
2022-09-04T09:12:04.661Z,70.44
2022-09-04T09:14:41.473Z,69.81
2022-09-04T09:16:57.326Z,69.68
2022-09-04T09:19:26.157Z,69.19
2022-09-04T09:21:44.250Z,69.02
2022-09-04T09:24:15.241Z,68.27
2022-09-04T09:26:44.029Z,68.99
2022-09-04T09:29:34.481Z,68.91
2022-09-04T09:32:11.495Z,68.99
2022-09-04T09:34:39.442Z,69.39
2022-09-04T09:37:23.756Z,68.99
2022-09-04T09:40:24.189Z,68.68
2022-09-04T09:43:04.268Z,67.87
2022-09-04T09:45:39.845Z,68.57
2022-09-04T09:48:22.917Z,68.69
2022-09-04T09:51:16.699Z,68.36
2022-09-04T09:54:13.321Z,68.30
2022-09-04T09:56:53.523Z,68.06
2022-09-04T09:59:32.615Z,67.62
2022-09-04T10:01:54.878Z,67.39
2022-09-04T10:04:22.653Z,67.91
2022-09-04T10:06:51.789Z,67.59
2022-09-04T10:09:30.788Z,67.17
2022-09-04T10:12:06.996Z,67.10
2022-09-04T10:14:41.164Z,67.41
2022-09-04T10:17:13.239Z,67.03
2022-09-04T10:19:46.997Z,66.46
2022-09-04T10:22:43.276Z,66.42
2022-09-04T10:25:17.905Z,66.72
2022-09-04T10:27:59.482Z,66.95
2022-09-04T10:30:10.708Z,66.36
2022-09-04T10:32:36.659Z,65.56
2022-09-04T10:35:08.966Z,66.06
2022-09-04T10:37:29.881Z,66.26
2022-09-04T10:39:48.444Z,65.37
2022-09-04T10:42:06.161Z,65.90
2022-09-04T10:44:38.408Z,65.17
2022-09-04T10:46:53.928Z,65.63
2022-09-04T10:49:29.150Z,65.57
2022-09-04T10:52:06.159Z,64.44
2022-09-04T10:54:26.910Z,63.84
2022-09-04T10:56:41.068Z,63.78
2022-09-04T10:59:18.626Z,63.67
2022-09-04T11:01:48.396Z,63.10
2022-09-04T11:04:31.659Z,62.88
2022-09-04T11:06:52.485Z,63.79
2022-09-04T11:09:28.066Z,62.21
2022-09-04T11:11:57.316Z,62.24
2022-09-04T11:14:47.415Z,62.31
2022-09-04T11:17:16.643Z,62.88
2022-09-04T11:20:01.811Z,62.80
2022-09-04T11:22:55.118Z,62.68
2022-09-04T11:25:36.756Z,63.03
2022-09-04T11:28:35.910Z,63.15
2022-09-04T11:30:54.420Z,62.26
2022-09-04T11:33:37.845Z,62.40
2022-09-04T11:36:17.256Z,62.00
2022-09-04T11:38:42.817Z,62.50
2022-09-04T11:41:15.126Z,62.07
2022-09-04T11:43:38.679Z,61.88
2022-09-04T11:46:03.935Z,60.97
2022-09-04T11:48:40.632Z,60.99
2022-09-04T11:51:05.831Z,60.82
2022-09-04T11:53:34.617Z,60.55
2022-09-04T11:56:15.274Z,60.26
2022-09-04T11:58:43.809Z,60.78
2022-09-04T12:00:59.636Z,60.71
2022-09-04T12:03:52.124Z,60.67
2022-09-04T12:06:17.248Z,61.19
2022-09-04T12:09:19.517Z,61.72
2022-09-04T12:11:55.921Z,60.81
2022-09-04T12:14:20.236Z,60.79
2022-09-04T12:17:05.993Z,60.66
2022-09-04T12:19:47.125Z,60.47
2022-09-04T12:22:22.975Z,60.71
2022-09-04T12:24:58.250Z,60.40
2022-09-04T12:27:40.121Z,60.80
2022-09-04T12:30:11.296Z,60.90
2022-09-04T12:33:00.736Z,61.03
2022-09-04T12:35:36.475Z,61.25
2022-09-04T12:38:12.149Z,61.37
2022-09-04T12:40:32.651Z,61.74
2022-09-04T12:42:45.075Z,62.14
2022-09-04T12:44:59.591Z,62.36
2022-09-04T12:47:18.016Z,62.87
2022-09-04T12:49:50.258Z,63.65
2022-09-04T12:52:06.317Z,63.73
2022-09-04T12:54:30.572Z,64.53
2022-09-04T12:56:48.999Z,64.15
2022-09-04T12:59:16.246Z,64.53
2022-09-04T13:01:37.677Z,64.52
2022-09-04T13:03:55.504Z,64.65
2022-09-04T13:06:12.245Z,64.51
2022-09-04T13:08:25.193Z,64.17
2022-09-04T13:10:43.296Z,64.14
2022-09-04T13:12:58.579Z,63.65
2022-09-04T13:15:31.405Z,63.33
2022-09-04T13:17:47.815Z,63.85
2022-09-04T13:20:00.730Z,63.41
2022-09-04T13:22:23.677Z,63.07
2022-09-04T13:24:44.697Z,62.77
2022-09-04T13:27:06.162Z,62.74
2022-09-04T13:29:26.764Z,62.52
2022-09-04T13:31:44.450Z,63.35
2022-09-04T13:33:57.294Z,62.98
2022-09-04T13:36:14.057Z,62.78
2022-09-04T13:38:51.551Z,62.76
2022-09-04T13:41:30.321Z,62.80
2022-09-04T13:44:06.540Z,62.53
2022-09-04T13:46:17.983Z,62.43
2022-09-04T13:48:37.161Z,62.50
2022-09-04T13:50:47.149Z,62.74
2022-09-04T13:52:57.357Z,62.62
2022-09-04T13:55:07.898Z,62.29
2022-09-04T13:57:20.028Z,61.94
2022-09-04T13:59:25.501Z,61.14
2022-09-04T14:01:33.740Z,61.94
2022-09-04T14:03:45.510Z,61.69
2022-09-04T14:05:50.886Z,61.47
2022-09-04T14:08:02.190Z,62.02
2022-09-04T14:10:12.606Z,62.36
2022-09-04T14:12:48.731Z,62.24
2022-09-04T14:15:25.821Z,61.79
2022-09-04T14:17:43.081Z,61.34
2022-09-04T14:20:00.522Z,61.46
2022-09-04T14:22:25.514Z,61.39
2022-09-04T14:27:11.366Z,61.80
2022-09-04T14:29:28.627Z,61.10
2022-09-04T14:30:29.389Z,61.35
2022-09-04T14:31:46.401Z,60.06
2022-09-04T14:34:00.668Z,59.54
2022-09-04T14:36:18.706Z,59.48
2022-09-04T14:38:45.762Z,59.14
2022-09-04T14:41:00.504Z,58.41
2022-09-04T14:43:15.229Z,58.06
2022-09-04T14:45:38.671Z,58.24
2022-09-04T14:47:47.707Z,58.30
2022-09-04T14:49:55.069Z,58.07
2022-09-04T14:52:11.831Z,57.32
2022-09-04T14:54:25.376Z,57.11
2022-09-04T14:56:35.057Z,56.83
2022-09-04T14:58:47.723Z,56.72
2022-09-04T15:01:00.952Z,56.53
2022-09-04T15:03:21.960Z,56.83
2022-09-04T15:05:33.631Z,56.50
2022-09-04T15:07:54.240Z,56.37
2022-09-04T15:10:14.139Z,56.33
2022-09-04T15:12:25.126Z,56.31
2022-09-04T15:14:36.769Z,56.68
2022-09-04T15:16:50.459Z,56.73
2022-09-04T15:19:01.847Z,57.15
2022-09-04T15:21:14.697Z,58.01
2022-09-04T15:23:27.709Z,58.59
2022-09-04T15:25:58.618Z,58.62
2022-09-04T15:28:10.852Z,58.34
2022-09-04T15:30:22.137Z,58.79
2022-09-04T15:32:31.162Z,58.09
2022-09-04T15:34:37.255Z,58.28
2022-09-04T15:36:43.260Z,58.71
2022-09-04T15:38:54.373Z,58.60
2022-09-04T15:41:16.783Z,58.18
2022-09-04T15:43:28.237Z,58.79
2022-09-04T15:45:42.571Z,58.68
2022-09-04T15:48:06.269Z,58.98
2022-09-04T15:50:21.291Z,59.13
2022-09-04T15:52:37.870Z,59.32
2022-09-04T15:55:20.797Z,59.41
2022-09-04T15:57:32.398Z,62.59
2022-09-04T15:59:48.799Z,63.08
2022-09-04T16:02:01.990Z,65.82
2022-09-04T16:04:13.166Z,67.79
2022-09-04T16:06:24.044Z,67.75
2022-09-04T16:08:37.537Z,67.16
2022-09-04T16:10:53.327Z,66.88
2022-09-04T16:13:03.854Z,67.59
2022-09-04T16:15:17.042Z,68.32
2022-09-04T16:17:25.335Z,68.70
2022-09-04T16:19:35.564Z,69.04
2022-09-04T16:21:47.031Z,70.36
2022-09-04T16:23:53.441Z,71.72
2022-09-04T16:25:59.284Z,72.02
2022-09-04T16:28:08.479Z,71.49
2022-09-04T16:30:28.578Z,71.84
2022-09-04T16:32:35.732Z,72.42
2022-09-04T16:34:47.236Z,72.55
2022-09-04T16:36:57.604Z,72.87
2022-09-04T16:39:10.196Z,72.93
2022-09-04T16:41:20.477Z,72.09
2022-09-04T16:43:28.414Z,72.63
2022-09-04T16:45:40.261Z,73.15
2022-09-04T16:47:53.832Z,73.31
2022-09-04T16:50:07.644Z,73.34
2022-09-04T16:52:58.874Z,73.62
2022-09-04T16:55:23.660Z,73.62
2022-09-04T16:57:36.984Z,73.76
2022-09-04T16:59:46.280Z,73.57
2022-09-04T17:01:59.315Z,73.49
2022-09-04T17:04:24.250Z,73.72
2022-09-04T17:06:33.737Z,73.00
2022-09-04T17:08:45.182Z,72.80
2022-09-04T17:10:54.219Z,72.79
2022-09-04T17:13:05.836Z,72.74
2022-09-04T17:15:21.727Z,72.24
2022-09-04T17:17:30.563Z,72.19
2022-09-04T17:19:36.590Z,71.85
2022-09-04T17:28:57.381Z,72.44
2022-09-04T17:29:04.197Z,72.05
2022-09-04T17:29:14.375Z,73.10
2022-09-04T17:29:42.890Z,73.58
2022-09-04T17:31:57.298Z,73.94
2022-09-04T17:40:41.060Z,74.31
2022-09-04T17:40:46.716Z,74.34
2022-09-04T17:40:54.772Z,74.63
2022-09-04T17:41:55.832Z,73.81
2022-09-04T17:44:22.721Z,73.33
2022-09-04T17:46:33.396Z,72.91
2022-09-04T17:48:43.213Z,72.22
2022-09-04T17:50:52.712Z,72.58
2022-09-04T17:53:01.704Z,72.18
2022-09-04T17:55:09.105Z,72.23
2022-09-04T17:57:21.077Z,72.03
2022-09-04T17:59:34.344Z,71.87
2022-09-04T18:01:45.262Z,72.06
2022-09-04T18:04:20.459Z,71.99
2022-09-04T18:06:27.179Z,72.08
2022-09-04T18:08:37.843Z,72.15
2022-09-04T18:10:55.301Z,72.20
2022-09-04T18:13:37.108Z,71.88
2022-09-04T18:15:47.338Z,72.28
2022-09-04T18:18:00.067Z,71.99
2022-09-04T18:20:16.148Z,72.22
2022-09-04T18:22:33.725Z,72.34
2022-09-04T18:24:44.568Z,72.02
2022-09-04T18:26:56.763Z,71.96
2022-09-04T18:29:30.445Z,72.08
2022-09-04T18:37:12.507Z,71.89
2022-09-04T18:37:20.592Z,71.89
2022-09-04T18:37:26.562Z,71.68
2022-09-04T18:39:30.089Z,71.82
2022-09-04T18:50:21.059Z,71.95
2022-09-04T18:50:22.476Z,72.04
2022-09-04T18:50:39.227Z,72.11
2022-09-04T18:51:04.356Z,72.30
2022-09-04T18:51:54.561Z,72.03
2022-09-04T18:54:08.268Z,72.01
2022-09-04T18:56:20.240Z,72.03
2022-09-04T18:58:47.556Z,71.95
2022-09-04T19:00:58.084Z,71.90
2022-09-04T19:03:12.241Z,71.82
2022-09-04T19:05:20.431Z,71.69
2022-09-04T19:07:30.068Z,71.62
2022-09-04T19:09:55.358Z,71.49
2022-09-04T19:12:07.086Z,71.54
2022-09-04T19:14:17.252Z,71.51
2022-09-04T19:16:29.236Z,71.66
2022-09-04T19:18:46.855Z,71.67
2022-09-04T19:21:00.002Z,71.67
2022-09-04T19:23:15.582Z,71.75
2022-09-04T19:25:25.605Z,71.68
2022-09-04T19:27:37.862Z,71.76
2022-09-04T19:29:51.993Z,71.77
2022-09-04T19:32:04.495Z,71.72
2022-09-04T19:34:18.891Z,71.74
2022-09-04T19:36:32.427Z,71.81
2022-09-04T19:45:19.985Z,71.83
2022-09-04T19:45:55.021Z,71.86
2022-09-04T19:46:04.422Z,72.06
2022-09-04T19:46:34.194Z,72.16
2022-09-04T19:50:54.031Z,72.10
2022-09-04T19:53:30.090Z,72.21
2022-09-04T19:54:06.465Z,72.43
2022-09-04T19:56:23.094Z,72.29
2022-09-04T19:58:37.801Z,72.47
2022-09-04T20:00:50.232Z,72.62
2022-09-04T20:02:59.374Z,72.82
2022-09-04T20:05:10.857Z,72.89
2022-09-04T20:07:32.703Z,72.93
2022-09-04T20:09:50.339Z,73.11
2022-09-04T20:11:59.238Z,73.06
2022-09-04T20:14:14.017Z,73.14
2022-09-04T20:16:25.045Z,73.30
2022-09-04T20:18:39.412Z,73.51
2022-09-04T20:20:53.413Z,73.63
2022-09-04T20:23:35.269Z,73.58
2022-09-04T20:25:39.843Z,73.96
2022-09-04T20:27:48.343Z,73.92
2022-09-04T20:29:57.681Z,73.71
2022-09-04T20:32:08.864Z,73.66
2022-09-04T20:34:36.798Z,73.50
2022-09-04T20:36:48.860Z,73.38
2022-09-04T20:38:59.383Z,73.52
2022-09-04T20:41:12.733Z,73.34
2022-09-04T20:43:27.220Z,73.48
2022-09-04T20:47:30.696Z,73.24
2022-09-04T20:52:45.189Z,73.36
2022-09-04T20:53:07.180Z,73.49
2022-09-04T20:53:26.245Z,73.43
2022-09-04T20:55:46.420Z,73.52
2022-09-04T21:03:06.293Z,73.42
2022-09-04T21:03:19.262Z,73.78
2022-09-04T21:03:29.406Z,73.93
2022-09-04T21:06:04.313Z,74.24
2022-09-04T21:08:25.956Z,74.43
2022-09-04T21:10:35.802Z,74.34
2022-09-04T21:12:46.360Z,74.75
2022-09-04T21:14:56.014Z,75.06
2022-09-04T21:17:34.175Z,75.18
2022-09-04T21:20:08.451Z,75.33
2022-09-04T21:22:33.891Z,75.39
2022-09-04T21:25:07.048Z,75.49
2022-09-04T21:28:09.268Z,75.49
2022-09-04T21:30:16.831Z,75.73
2022-09-04T21:32:40.414Z,75.65
2022-09-04T21:35:02.396Z,75.64
2022-09-04T21:37:15.940Z,75.91
2022-09-04T21:39:41.002Z,76.26
2022-09-04T21:42:01.651Z,76.79
2022-09-04T21:44:50.473Z,76.88
2022-09-04T21:47:09.776Z,76.90
2022-09-04T21:49:35.445Z,77.06
2022-09-04T21:52:00.431Z,77.12
2022-09-04T21:54:38.416Z,77.52
2022-09-04T22:02:30.448Z,77.76
2022-09-04T22:02:45.496Z,78.05
2022-09-04T22:02:52.681Z,78.34
2022-09-04T22:05:11.115Z,78.45
2022-09-04T22:11:56.890Z,78.80
2022-09-04T22:13:33.498Z,79.65
2022-09-04T22:13:44.165Z,79.06
2022-09-04T22:15:08.707Z,79.80
2022-09-04T22:17:40.490Z,79.77
2022-09-04T22:20:21.022Z,79.92
2022-09-04T22:23:02.114Z,80.08
2022-09-04T22:25:26.963Z,79.96
2022-09-04T22:28:08.878Z,80.21
2022-09-04T22:30:16.150Z,80.31
2022-09-04T22:32:50.690Z,80.14
2022-09-04T22:35:36.539Z,80.53
2022-09-04T22:38:07.886Z,81.06
2022-09-04T22:40:27.324Z,81.26
2022-09-04T22:42:57.960Z,81.35
2022-09-04T22:45:36.328Z,81.44
2022-09-04T22:47:56.371Z,81.50
2022-09-04T22:50:49.967Z,81.50
2022-09-04T22:53:12.123Z,81.44
2022-09-04T22:55:40.182Z,81.34
2022-09-04T22:58:17.605Z,81.77
2022-09-04T23:00:24.424Z,81.87
2022-09-04T23:03:07.868Z,81.82
2022-09-04T23:05:36.453Z,82.16
2022-09-04T23:13:46.678Z,82.19
2022-09-04T23:13:47.523Z,82.20
2022-09-04T23:14:05.356Z,82.24
2022-09-04T23:16:27.764Z,82.27
2022-09-04T23:21:34.062Z,82.51
2022-09-04T23:26:50.718Z,82.56
2022-09-04T23:26:53.818Z,82.48
2022-09-04T23:27:28.590Z,82.71
2022-09-04T23:30:04.036Z,82.74
2022-09-04T23:32:27.342Z,83.03
2022-09-04T23:35:14.754Z,83.22
2022-09-04T23:38:00.025Z,83.57
2022-09-04T23:40:19.263Z,83.72
2022-09-04T23:42:45.488Z,84.01
2022-09-04T23:45:17.495Z,84.05
2022-09-04T23:47:55.201Z,84.17
2022-09-04T23:50:05.013Z,84.13
2022-09-04T23:52:25.206Z,84.35
2022-09-04T23:55:03.084Z,84.24
2022-09-04T23:57:25.843Z,84.00
2022-09-04T23:59:38.931Z,84.23
